Terminal Aerodrome Forecast
Issued by NWS

Home | Current Version | Previous Version | Text Only | Print | Product List | Glossary On
Versions: 1 2 3 4 5 6 7 8 9 10 11 12 13 14
000
FTUS45 KABQ 221700
TAFGUP
TAF
KGUP 221737Z 2218/2318 24006KT P6SM SCT120
     FM222000 24010KT P6SM FEW120
     FM230200 00000KT P6SM SKC=

USA.gov is the U.S. government's official web portal to all federal, state and local government web resources and services.